Township of Washington, New Jersey
Current Conditions -  °F | °C
As of 6:51 PM on Friday 24 Oct 2014 (Local Time) from KTEB Reporting Station
Clear Clear  
Wind Chill: 57°   Ceiling: Unl
Heat Index: 57°   Visibility: 10mi
Dew Point: 45°   Wind: 0mph
Humidity: 64%   Direction: NA
Pressure: 29.79"   Gusts: NA
Location:  41.0089°N, 74.0218°W
Report Text: KTEB 242251Z 00000KT 10SM CLR 14/07 A2979 RMK AO2 SLP086 T01390072
Loading
Personal Weather Stations






























Interactive Weather Map
Tropical Storm Tracking
New forecast layout! Learn more

10-Day Weather Forecast

Advertisements
Track Severe Weather on mobile